S/y Armorel — 2DSJ5 — position and weather

sailwx.info

Track history (hours):
 
Tides and Currents Weather Stations Pressure Air Temp Water Temp Dewpoint Dewpoint Depression Visibility Wind Speed Wind Dir Waves Ship Positions

S/y Armorel

Last reported at 2017-Aug-21 15:37 UTC. Time now 2017-Nov-23 05:52 UTC.
Position N 49°34' W 004°39'.
Warning: this ship's position is months out of date.

Length 13 m.

Type: Sailing vessel. MMSI: 235081666.

Date/timePositionNaut miles runAvg speedWind from/ knotsBaromVisibWave heightAir tempDewpointWater temp
2017-Aug-21 15:37N 49°34' W 004°39'  
2017-Aug-19 11:32N 48°37' W 004°37'0 6.1
2017-Aug-19 11:30N 48°37' W 004°37'4 6.9
2017-Aug-19 10:58N 48°37' W 004°43'3 6.9
2017-Aug-19 10:30N 48°35' W 004°47'4 7.1
2017-Aug-19 09:58N 48°32' W 004°50'3 7.1
2017-Aug-19 09:30N 48°29' W 004°50'4 6.8
2017-Aug-19 08:59N 48°25' W 004°50'3 6.6
2017-Aug-19 08:30N 48°22' W 004°49'3 6.7
2017-Aug-19 08:00N 48°19' W 004°46'3 6.4
2017-Aug-19 07:30N 48°18' W 004°42'3 6.3
2017-Aug-19 07:00N 48°18' W 004°37'1 2.8
2017-Aug-19 06:30N 48°17' W 004°35'0 0.0
2017-Aug-17 14:57N 48°17' W 004°35'0 0.0
2017-Aug-17 14:30N 48°17' W 004°35'0 0.0
2017-Aug-17 14:00N 48°17' W 004°35'1 1.0
2017-Aug-17 13:30N 48°17' W 004°36'2 4.5
2017-Aug-17 13:00N 48°16' W 004°38'3 6.2
2017-Aug-17 12:30N 48°13' W 004°40'3 6.1
2017-Aug-17 12:00N 48°10' W 004°42'3 6.3
2017-Aug-17 11:30N 48°07' W 004°44'3 6.5
2017-Aug-17 11:00N 48°04' W 004°45'3 5.5
2017-Aug-17 10:30N 48°01' W 004°45'6 6.4
2017-Aug-17 09:38N 47°57' W 004°39'5 6.7
2017-Aug-17 08:53N 47°53' W 004°35'13 6.5
2017-Aug-17 06:53N 47°45' W 004°20'  
2017-Aug-14 13:27N 47°36' W 003°54'3 6.4
2017-Aug-14 12:54N 47°35' W 003°50'3 6.4
2017-Aug-14 12:28N 47°34' W 003°46'5 6.5
2017-Aug-14 11:41N 47°32' W 003°39'1 6.4
2017-Aug-14 11:30N 47°31' W 003°38'3 6.2
2017-Aug-14 11:00N 47°30' W 003°34'3 5.8
2017-Aug-14 10:30N 47°29' W 003°30'3 5.5
2017-Aug-14 10:00N 47°27' W 003°26'3 5.5
2017-Aug-14 09:30N 47°26' W 003°22'3 6.0
2017-Aug-14 08:59N 47°25' W 003°18'3 6.1
2017-Aug-14 08:30N 47°24' W 003°14'4 6.7
2017-Aug-14 07:59N 47°22' W 003°10'1 1.3
2017-Aug-14 06:58N 47°21' W 003°09'0 0.0
2017-Aug-12 15:26N 47°21' W 003°09'0 0.0
2017-Aug-12 14:47N 47°21' W 003°09'0 0.0
2017-Aug-12 14:23N 47°21' W 003°09'0 0.0
2017-Aug-12 11:29N 47°21' W 003°09'1 2.7
2017-Aug-12 10:59N 47°20' W 003°07'1 2.2
2017-Aug-12 10:29N 47°19' W 003°06'0 0.0
2017-Aug-12 09:59N 47°19' W 003°06'0 0.0
2017-Aug-12 09:14N 47°19' W 003°06'0 0.0
2017-Aug-12 08:56N 47°19' W 003°06'0 0.0
2017-Aug-12 08:23N 47°19' W 003°06'0 0.0
2017-Aug-12 07:56N 47°19' W 003°06'0 0.0
2017-Aug-12 07:26N 47°19' W 003°06'0 0.0
2017-Aug-12 06:59N 47°19' W 003°06'0 0.0
2017-Aug-12 06:29N 47°19' W 003°06'0 0.0
2017-Aug-12 05:59N 47°19' W 003°06'1 1.7
2017-Aug-12 05:30N 47°19' W 003°05'2 0.1
2017-Aug-11 16:23N 47°19' W 003°03'3 6.8
2017-Aug-11 15:53N 47°21' W 003°07'  
Track history (hours):
 
Tides and Currents Weather Stations Pressure Air Temp Water Temp Dewpoint Dewpoint Depression Visibility Wind Speed Wind Dir Waves Ship Positions

S/y Armorel

Last reported at 2017-Aug-21 15:37 UTC. Time now 2017-Nov-23 05:52 UTC.
Position N 49°34' W 004°39'.
Warning: this ship's position is months out of date.

Length 13 m.

Type: Sailing vessel. MMSI: 235081666.

Date/timePositionNaut miles runAvg speedWind from/ knotsBaromVisibWave heightAir tempDewpointWater temp
2017-Aug-21 15:37N 49°34' W 004°39'  
2017-Aug-19 11:32N 48°37' W 004°37'0 6.1
2017-Aug-19 11:30N 48°37' W 004°37'4 6.9
2017-Aug-19 10:58N 48°37' W 004°43'3 6.9
2017-Aug-19 10:30N 48°35' W 004°47'4 7.1
2017-Aug-19 09:58N 48°32' W 004°50'3 7.1
2017-Aug-19 09:30N 48°29' W 004°50'4 6.8
2017-Aug-19 08:59N 48°25' W 004°50'3 6.6
2017-Aug-19 08:30N 48°22' W 004°49'3 6.7
2017-Aug-19 08:00N 48°19' W 004°46'3 6.4
2017-Aug-19 07:30N 48°18' W 004°42'3 6.3
2017-Aug-19 07:00N 48°18' W 004°37'1 2.8
2017-Aug-19 06:30N 48°17' W 004°35'0 0.0
2017-Aug-17 14:57N 48°17' W 004°35'0 0.0
2017-Aug-17 14:30N 48°17' W 004°35'0 0.0
2017-Aug-17 14:00N 48°17' W 004°35'1 1.0
2017-Aug-17 13:30N 48°17' W 004°36'2 4.5
2017-Aug-17 13:00N 48°16' W 004°38'3 6.2
2017-Aug-17 12:30N 48°13' W 004°40'3 6.1
2017-Aug-17 12:00N 48°10' W 004°42'3 6.3
2017-Aug-17 11:30N 48°07' W 004°44'3 6.5
2017-Aug-17 11:00N 48°04' W 004°45'3 5.5
2017-Aug-17 10:30N 48°01' W 004°45'6 6.4
2017-Aug-17 09:38N 47°57' W 004°39'5 6.7
2017-Aug-17 08:53N 47°53' W 004°35'13 6.5
2017-Aug-17 06:53N 47°45' W 004°20'  
2017-Aug-14 13:27N 47°36' W 003°54'3 6.4
2017-Aug-14 12:54N 47°35' W 003°50'3 6.4
2017-Aug-14 12:28N 47°34' W 003°46'5 6.5
2017-Aug-14 11:41N 47°32' W 003°39'1 6.4
2017-Aug-14 11:30N 47°31' W 003°38'3 6.2
2017-Aug-14 11:00N 47°30' W 003°34'3 5.8
2017-Aug-14 10:30N 47°29' W 003°30'3 5.5
2017-Aug-14 10:00N 47°27' W 003°26'3 5.5
2017-Aug-14 09:30N 47°26' W 003°22'3 6.0
2017-Aug-14 08:59N 47°25' W 003°18'3 6.1
2017-Aug-14 08:30N 47°24' W 003°14'4 6.7
2017-Aug-14 07:59N 47°22' W 003°10'1 1.3
2017-Aug-14 06:58N 47°21' W 003°09'0 0.0
2017-Aug-12 15:26N 47°21' W 003°09'0 0.0
2017-Aug-12 14:47N 47°21' W 003°09'0 0.0
2017-Aug-12 14:23N 47°21' W 003°09'0 0.0
2017-Aug-12 11:29N 47°21' W 003°09'1 2.7
2017-Aug-12 10:59N 47°20' W 003°07'1 2.2
2017-Aug-12 10:29N 47°19' W 003°06'0 0.0
2017-Aug-12 09:59N 47°19' W 003°06'0 0.0
2017-Aug-12 09:14N 47°19' W 003°06'0 0.0
2017-Aug-12 08:56N 47°19' W 003°06'0 0.0
2017-Aug-12 08:23N 47°19' W 003°06'0 0.0
2017-Aug-12 07:56N 47°19' W 003°06'0 0.0
2017-Aug-12 07:26N 47°19' W 003°06'0 0.0
2017-Aug-12 06:59N 47°19' W 003°06'0 0.0
2017-Aug-12 06:29N 47°19' W 003°06'0 0.0
2017-Aug-12 05:59N 47°19' W 003°06'1 1.7
2017-Aug-12 05:30N 47°19' W 003°05'2 0.1
2017-Aug-11 16:23N 47°19' W 003°03'3 6.8
2017-Aug-11 15:53N 47°21' W 003°07'  

Dump ship's entire track history